Time;durP1;ratioP1;P1;durP2;ratioP2;P2;SDS_P1;SDS_P2;PMS_P1;PMS_P2;Temp;Humidity;BMP_temperature;BMP_pressure;BME280_temperature;BME280_humidity;BME280_pressure;Samples;Min_cycle;Max_cycle;Signal;HPM_P1;HPM_P2
2022/02/16 00:03:51;;;;;;;;;;;8.30;99.90;;;;;;8408714;28;19933;-73
2022/02/16 00:08:29;;;;;;;;;;;8.40;99.90;;;;;;8407586;28;20256;-73
2022/02/16 00:12:31;;;;;;;;;;;8.40;99.90;;;;;;8405988;28;19935;-73
2022/02/16 00:16:33;;;;;;;;;;;8.40;99.90;;;;;;8415242;28;19924;-73
2022/02/16 00:20:35;;;;;;;;;;;8.30;99.90;;;;;;8416740;28;19924;-73
2022/02/16 00:24:36;;;;;;;;;;;8.40;99.90;;;;;;8389287;28;19925;-73
2022/02/16 00:28:42;;;;;;;;;;;8.40;99.90;;;;;;8392727;28;19956;-73
2022/02/16 00:32:43;;;;;;;;;;;8.40;99.90;;;;;;8408066;28;19924;-73
2022/02/16 00:36:45;;;;;;;;;;;8.40;99.90;;;;;;8412665;28;19931;-73
2022/02/16 00:40:46;;;;;;;;;;;8.40;99.90;;;;;;8407285;28;19944;-73
2022/02/16 00:44:48;;;;;;;;;;;8.40;99.90;;;;;;8393723;28;19924;-73
2022/02/16 00:48:50;;;;;;;;;;;8.40;99.90;;;;;;8406213;28;19924;-73
2022/02/16 00:52:51;;;;;;;;;;;8.40;99.90;;;;;;8408693;28;19924;-73
2022/02/16 00:56:53;;;;;;;;;;;8.40;99.90;;;;;;8413110;28;19924;-73
2022/02/16 01:00:55;;;;;;;;;;;8.40;99.90;;;;;;8413837;28;20295;-73
2022/02/16 01:04:56;;;;;;;;;;;8.40;99.90;;;;;;8413801;28;19931;-73
2022/02/16 01:09:20;;;;;;;;;;;8.40;99.90;;;;;;8403466;28;21294;-73
2022/02/16 01:13:24;;;;;;;;;;;8.40;99.90;;;;;;8406055;28;19932;-73
2022/02/16 01:17:26;;;;;;;;;;;8.40;99.90;;;;;;8391868;28;19925;-73
2022/02/16 01:21:27;;;;;;;;;;;8.40;99.90;;;;;;8395483;28;19939;-74
2022/02/16 01:25:29;;;;;;;;;;;8.40;99.90;;;;;;8409027;28;19931;-74
2022/02/16 01:29:32;;;;;;;;;;;8.40;99.90;;;;;;8410631;28;19924;-74
2022/02/16 01:33:34;;;;;;;;;;;8.40;99.90;;;;;;8387633;28;20383;-74
2022/02/16 01:37:35;;;;;;;;;;;8.40;99.90;;;;;;8388283;28;19931;-74
2022/02/16 01:41:37;;;;;;;;;;;8.40;99.90;;;;;;8409233;28;19963;-74
2022/02/16 01:45:41;;;;;;;;;;;8.40;99.90;;;;;;8386363;28;19924;-74
2022/02/16 01:49:44;;;;;;;;;;;8.40;99.90;;;;;;8401729;28;20359;-74
2022/02/16 01:53:45;;;;;;;;;;;8.40;99.90;;;;;;8398927;28;19932;-74
2022/02/16 01:57:48;;;;;;;;;;;8.30;99.90;;;;;;8405919;28;19931;-74
2022/02/16 02:01:50;;;;;;;;;;;8.30;99.90;;;;;;8384086;28;20023;-74
2022/02/16 02:05:51;;;;;;;;;;;8.30;99.90;;;;;;8405760;28;19935;-73
2022/02/16 02:09:53;;;;;;;;;;;8.30;99.90;;;;;;8404505;28;20376;-73
2022/02/16 02:13:59;;;;;;;;;;;8.30;99.90;;;;;;8407072;28;19995;-74
2022/02/16 02:18:01;;;;;;;;;;;8.40;99.90;;;;;;8403183;28;19924;-73
2022/02/16 02:22:03;;;;;;;;;;;8.40;99.90;;;;;;8399552;28;19925;-74
2022/02/16 02:26:04;;;;;;;;;;;8.50;99.90;;;;;;8406119;28;20002;-74
2022/02/16 02:30:07;;;;;;;;;;;8.50;99.90;;;;;;8379953;28;19924;-74
2022/02/16 02:34:08;;;;;;;;;;;8.50;99.90;;;;;;8387306;28;19932;-74
2022/02/16 02:38:10;;;;;;;;;;;8.50;99.90;;;;;;8385881;28;19931;-74
2022/02/16 02:42:11;;;;;;;;;;;8.60;99.90;;;;;;8409696;28;19931;-74
2022/02/16 02:46:16;;;;;;;;;;;8.60;99.90;;;;;;8385870;28;19977;-74
2022/02/16 02:50:18;;;;;;;;;;;8.60;99.90;;;;;;8402260;28;19935;-74
2022/02/16 02:54:19;;;;;;;;;;;8.60;99.90;;;;;;8396005;28;19955;-74
2022/02/16 02:58:21;;;;;;;;;;;8.70;99.90;;;;;;8392931;28;19935;-74
2022/02/16 03:02:23;;;;;;;;;;;8.70;99.90;;;;;;8407252;28;20117;-74
2022/02/16 03:06:25;;;;;;;;;;;8.70;99.90;;;;;;8405507;28;19928;-74
2022/02/16 03:10:26;;;;;;;;;;;8.70;99.90;;;;;;8382698;28;19940;-74
2022/02/16 03:14:28;;;;;;;;;;;8.70;99.90;;;;;;8396270;28;19928;-74
2022/02/16 03:18:30;;;;;;;;;;;8.70;99.90;;;;;;8414627;28;20371;-74
2022/02/16 03:22:32;;;;;;;;;;;8.70;99.90;;;;;;8409065;28;20299;-74
2022/02/16 03:26:33;;;;;;;;;;;8.70;99.90;;;;;;8409203;28;19925;-74
2022/02/16 03:30:35;;;;;;;;;;;8.70;99.90;;;;;;8409359;28;19939;-74
2022/02/16 03:34:57;;;;;;;;;;;8.70;99.90;;;;;;8416257;28;19931;-74
2022/02/16 03:38:58;;;;;;;;;;;8.70;99.90;;;;;;8411172;28;19936;-74
2022/02/16 03:43:00;;;;;;;;;;;8.70;99.90;;;;;;8407186;28;20014;-74
2022/02/16 03:47:02;;;;;;;;;;;8.70;99.90;;;;;;8411395;28;19924;-74
2022/02/16 03:51:04;;;;;;;;;;;8.70;99.90;;;;;;8405944;28;19931;-74
2022/02/16 03:55:10;;;;;;;;;;;8.70;99.90;;;;;;8408231;28;19975;-74
2022/02/16 03:59:11;;;;;;;;;;;8.70;99.90;;;;;;8408853;28;19924;-74
2022/02/16 04:03:13;;;;;;;;;;;8.60;99.90;;;;;;8410669;28;20323;-74
2022/02/16 04:07:16;;;;;;;;;;;8.70;99.90;;;;;;8410485;28;19925;-74
2022/02/16 04:11:26;;;;;;;;;;;8.70;99.90;;;;;;8388127;28;19939;-74
2022/02/16 04:15:27;;;;;;;;;;;8.70;99.90;;;;;;8389074;28;19924;-74
2022/02/16 04:19:29;;;;;;;;;;;8.70;99.90;;;;;;8386052;28;20395;-74
2022/02/16 04:23:31;;;;;;;;;;;8.60;99.90;;;;;;8407049;28;19929;-74
2022/02/16 04:27:32;;;;;;;;;;;8.60;99.90;;;;;;8390416;28;19947;-74
2022/02/16 04:31:34;;;;;;;;;;;8.60;99.90;;;;;;8409045;28;19931;-74
2022/02/16 04:35:36;;;;;;;;;;;8.60;99.90;;;;;;8407247;28;19924;-74
2022/02/16 04:39:37;;;;;;;;;;;8.60;99.90;;;;;;8407500;28;19935;-74
2022/02/16 04:43:39;;;;;;;;;;;8.60;99.90;;;;;;8403965;28;20364;-75
2022/02/16 04:47:44;;;;;;;;;;;8.60;99.90;;;;;;8417253;28;19935;-74
2022/02/16 04:51:46;;;;;;;;;;;8.60;99.90;;;;;;8411128;28;19924;-74
2022/02/16 04:55:47;;;;;;;;;;;8.60;99.90;;;;;;8410804;28;19932;-74
2022/02/16 04:59:49;;;;;;;;;;;8.70;99.90;;;;;;8407237;28;19935;-74
2022/02/16 05:03:50;;;;;;;;;;;8.70;99.90;;;;;;8384843;28;19931;-74
2022/02/16 05:07:52;;;;;;;;;;;8.70;99.90;;;;;;8404599;28;19924;-75
2022/02/16 05:11:54;;;;;;;;;;;8.70;99.90;;;;;;8403274;28;19931;-75
2022/02/16 05:15:55;;;;;;;;;;;8.70;99.90;;;;;;8391370;28;20011;-76
2022/02/16 05:19:57;;;;;;;;;;;8.70;99.90;;;;;;8388098;28;19932;-76
2022/02/16 05:23:59;;;;;;;;;;;8.80;99.90;;;;;;8387720;28;19985;-76
2022/02/16 05:28:00;;;;;;;;;;;8.80;99.90;;;;;;8392056;28;20367;-77
2022/02/16 05:32:02;;;;;;;;;;;8.80;99.90;;;;;;8405572;28;19943;-77
2022/02/16 05:36:04;;;;;;;;;;;8.80;99.90;;;;;;8395376;28;19924;-77
2022/02/16 05:40:06;;;;;;;;;;;8.80;99.90;;;;;;8404044;28;19924;-77
2022/02/16 05:44:10;;;;;;;;;;;8.90;99.90;;;;;;8406122;28;20478;-77
2022/02/16 05:48:19;;;;;;;;;;;8.90;99.90;;;;;;8408687;28;19936;-77
2022/02/16 05:52:21;;;;;;;;;;;8.90;99.90;;;;;;8392576;28;20583;-77
2022/02/16 05:56:23;;;;;;;;;;;8.90;99.90;;;;;;8394096;28;19924;-77
2022/02/16 06:00:24;;;;;;;;;;;8.90;99.90;;;;;;8401012;28;19925;-77
2022/02/16 06:04:26;;;;;;;;;;;9.00;99.90;;;;;;8391518;28;19928;-77
2022/02/16 06:08:28;;;;;;;;;;;9.00;99.90;;;;;;8390327;28;19932;-76
2022/02/16 06:12:29;;;;;;;;;;;9.00;99.90;;;;;;8403222;28;20340;-77
2022/02/16 06:16:31;;;;;;;;;;;9.00;99.90;;;;;;8410239;28;20396;-77
2022/02/16 06:20:33;;;;;;;;;;;9.10;99.90;;;;;;8409616;28;19931;-77
2022/02/16 06:24:34;;;;;;;;;;;9.10;99.90;;;;;;8386714;28;19924;-77
2022/02/16 06:28:38;;;;;;;;;;;9.20;99.90;;;;;;8392790;28;19931;-77
2022/02/16 06:32:40;;;;;;;;;;;9.20;99.90;;;;;;8406953;28;19940;-77
2022/02/16 06:36:43;;;;;;;;;;;9.20;99.90;;;;;;8403634;28;20326;-77
2022/02/16 06:40:46;;;;;;;;;;;9.20;99.90;;;;;;8389445;28;19959;-77
2022/02/16 06:44:48;;;;;;;;;;;9.20;99.90;;;;;;8397101;28;20287;-77
2022/02/16 06:48:50;;;;;;;;;;;9.30;99.90;;;;;;8382337;28;20380;-78
2022/02/16 06:52:51;;;;;;;;;;;9.30;99.90;;;;;;8412380;28;19932;-77
2022/02/16 06:56:53;;;;;;;;;;;9.30;99.90;;;;;;8412821;28;19932;-78
2022/02/16 07:00:54;;;;;;;;;;;9.30;99.90;;;;;;8412013;28;19932;-78
2022/02/16 07:04:58;;;;;;;;;;;9.40;99.90;;;;;;8391584;28;19925;-79
2022/02/16 07:09:00;;;;;;;;;;;9.40;99.90;;;;;;8384888;28;20281;-79
2022/02/16 07:13:01;;;;;;;;;;;9.40;99.90;;;;;;8387125;28;19939;-78
2022/02/16 07:17:03;;;;;;;;;;;9.50;99.90;;;;;;8407897;28;19924;-79
2022/02/16 07:21:06;;;;;;;;;;;9.50;99.90;;;;;;8413953;28;19924;-78
2022/02/16 07:25:08;;;;;;;;;;;9.50;99.90;;;;;;8395157;28;19925;-78
2022/02/16 07:29:11;;;;;;;;;;;9.60;99.90;;;;;;8412526;28;20400;-79
2022/02/16 07:33:14;;;;;;;;;;;9.60;99.90;;;;;;8391191;28;19924;-79
2022/02/16 07:37:16;;;;;;;;;;;9.60;99.90;;;;;;8419837;28;19928;-79
2022/02/16 07:41:18;;;;;;;;;;;9.70;99.90;;;;;;8411722;28;19977;-78
2022/02/16 07:45:20;;;;;;;;;;;9.70;99.90;;;;;;8409030;28;19924;-78
2022/02/16 07:49:22;;;;;;;;;;;9.80;99.90;;;;;;8395268;28;19978;-78
2022/02/16 07:53:24;;;;;;;;;;;9.80;99.90;;;;;;8390942;28;19940;-78
2022/02/16 07:57:31;;;;;;;;;;;9.80;99.90;;;;;;8389390;28;19939;-78
2022/02/16 08:01:33;;;;;;;;;;;9.90;99.90;;;;;;8387127;28;19947;-78
2022/02/16 08:05:35;;;;;;;;;;;9.90;99.90;;;;;;8399964;28;20434;-78
2022/02/16 08:09:37;;;;;;;;;;;10.00;99.90;;;;;;8409524;28;19928;-78
2022/02/16 08:13:39;;;;;;;;;;;9.90;99.90;;;;;;8409008;28;19924;-79
2022/02/16 08:17:41;;;;;;;;;;;10.00;99.90;;;;;;8414351;28;19931;-80
2022/02/16 08:21:44;;;;;;;;;;;10.00;99.90;;;;;;8411891;28;19924;-79
2022/02/16 08:25:45;;;;;;;;;;;10.00;99.90;;;;;;8405001;28;19972;-80
2022/02/16 08:29:47;;;;;;;;;;;10.00;99.90;;;;;;8411714;28;19935;-79
2022/02/16 08:33:49;;;;;;;;;;;10.00;99.90;;;;;;8410866;28;19931;-80
2022/02/16 08:37:51;;;;;;;;;;;10.10;99.90;;;;;;8410767;28;19928;-80
2022/02/16 08:41:53;;;;;;;;;;;10.10;99.90;;;;;;8391681;28;20015;-80
2022/02/16 08:45:55;;;;;;;;;;;10.20;99.90;;;;;;8387994;28;21828;-79
2022/02/16 08:49:57;;;;;;;;;;;10.20;99.90;;;;;;8410221;28;19925;-79
2022/02/16 08:53:59;;;;;;;;;;;10.20;99.90;;;;;;8397293;28;19924;-80
2022/02/16 08:58:09;;;;;;;;;;;10.30;99.90;;;;;;8389632;28;20001;-79
2022/02/16 09:02:11;;;;;;;;;;;10.30;99.90;;;;;;8404605;28;19928;-79
2022/02/16 09:06:12;;;;;;;;;;;10.40;99.90;;;;;;8410588;28;19924;-79
2022/02/16 09:10:14;;;;;;;;;;;10.50;99.90;;;;;;8411665;28;19943;-79
2022/02/16 09:14:16;;;;;;;;;;;10.60;99.90;;;;;;8388677;28;19925;-79
2022/02/16 09:18:17;;;;;;;;;;;10.60;99.90;;;;;;8402831;28;19924;-78
2022/02/16 09:22:20;;;;;;;;;;;10.70;99.90;;;;;;8383505;28;19951;-78
2022/02/16 09:26:23;;;;;;;;;;;10.70;99.90;;;;;;8395594;28;20026;-78
2022/02/16 09:30:24;;;;;;;;;;;10.90;99.90;;;;;;8406398;28;19924;-78
2022/02/16 09:34:26;;;;;;;;;;;10.90;99.90;;;;;;8402317;28;19986;-79
2022/02/16 09:38:28;;;;;;;;;;;11.00;99.90;;;;;;8386964;28;20356;-78
2022/02/16 09:42:31;;;;;;;;;;;11.00;99.90;;;;;;8393448;28;19931;-79
2022/02/16 09:46:34;;;;;;;;;;;11.10;99.90;;;;;;8381842;28;20287;-78
2022/02/16 09:50:35;;;;;;;;;;;11.20;99.90;;;;;;8405633;28;20399;-78
2022/02/16 09:54:37;;;;;;;;;;;11.20;99.90;;;;;;8408144;28;19928;-78
2022/02/16 09:58:39;;;;;;;;;;;11.30;99.90;;;;;;8388327;28;20347;-78
2022/02/16 10:02:43;;;;;;;;;;;11.40;99.90;;;;;;8411340;28;19951;-78
2022/02/16 10:06:45;;;;;;;;;;;11.50;99.90;;;;;;8392970;28;19924;-77
2022/02/16 10:10:59;;;;;;;;;;;11.60;99.90;;;;;;8390015;28;19929;-78
2022/02/16 10:15:00;;;;;;;;;;;11.70;99.90;;;;;;8386722;28;20435;-77
2022/02/16 10:19:03;;;;;;;;;;;11.70;99.90;;;;;;8399214;28;19954;-78
2022/02/16 10:23:04;;;;;;;;;;;11.70;99.90;;;;;;8402625;28;19970;-77
2022/02/16 10:27:06;;;;;;;;;;;11.70;99.90;;;;;;8406296;28;19935;-77
2022/02/16 10:31:08;;;;;;;;;;;11.70;99.90;;;;;;8390404;28;19939;-77
2022/02/16 10:35:10;;;;;;;;;;;11.80;99.90;;;;;;8409218;28;19924;-77
2022/02/16 10:39:14;;;;;;;;;;;11.70;99.90;;;;;;8406595;28;19931;-77
2022/02/16 10:43:16;;;;;;;;;;;11.70;99.90;;;;;;8408355;28;19931;-77
2022/02/16 10:47:17;;;;;;;;;;;11.70;99.90;;;;;;8401027;28;19925;-77
2022/02/16 10:51:20;;;;;;;;;;;11.70;99.90;;;;;;8402648;28;19924;-77
2022/02/16 10:55:38;;;;;;;;;;;11.70;99.90;;;;;;8405834;28;19940;-77
2022/02/16 10:59:40;;;;;;;;;;;11.70;99.90;;;;;;8386134;28;19931;-77
2022/02/16 11:03:46;;;;;;;;;;;11.70;99.90;;;;;;8392084;28;19928;-77
2022/02/16 11:07:48;;;;;;;;;;;11.70;99.90;;;;;;8402983;28;19932;-77
2022/02/16 11:11:53;;;;;;;;;;;11.70;99.90;;;;;;8401235;28;19928;-76
2022/02/16 11:15:54;;;;;;;;;;;11.70;99.90;;;;;;8409879;28;20016;-77
2022/02/16 11:20:15;;;;;;;;;;;11.70;99.90;;;;;;8411198;28;19931;-76
2022/02/16 11:24:27;;;;;;;;;;;11.70;99.90;;;;;;8385162;28;19925;-76
2022/02/16 11:28:30;;;;;;;;;;;11.70;99.90;;;;;;8401554;28;19924;-76
2022/02/16 11:32:39;;;;;;;;;;;11.70;99.90;;;;;;8378017;28;20282;-76
2022/02/16 11:36:45;;;;;;;;;;;11.70;99.90;;;;;;8384801;28;19925;-77
2022/02/16 11:40:49;;;;;;;;;;;11.80;99.90;;;;;;8412413;28;19925;-77
2022/02/16 11:44:51;;;;;;;;;;;11.70;99.90;;;;;;8408098;28;19924;-76
2022/02/16 11:48:53;;;;;;;;;;;11.80;99.90;;;;;;8393067;28;20304;-77
2022/02/16 11:52:56;;;;;;;;;;;11.80;99.90;;;;;;8398826;28;20407;-76
2022/02/16 11:57:18;;;;;;;;;;;11.90;99.90;;;;;;8410295;28;19928;-77
2022/02/16 12:01:20;;;;;;;;;;;11.90;99.90;;;;;;8415142;28;19935;-76
2022/02/16 12:05:40;;;;;;;;;;;11.90;99.90;;;;;;8401630;28;19928;-76
2022/02/16 12:09:41;;;;;;;;;;;11.90;99.90;;;;;;8417488;28;20302;-76
2022/02/16 12:13:51;;;;;;;;;;;11.90;99.90;;;;;;8412850;28;19978;-77
2022/02/16 12:17:53;;;;;;;;;;;11.90;99.90;;;;;;8420352;28;19943;-76
2022/02/16 12:21:55;;;;;;;;;;;11.90;99.90;;;;;;8409242;28;19981;-76
2022/02/16 12:26:00;;;;;;;;;;;12.00;99.90;;;;;;8412151;28;19931;-76
2022/02/16 12:30:02;;;;;;;;;;;12.00;99.90;;;;;;8413290;28;19935;-76
2022/02/16 12:34:12;;;;;;;;;;;11.90;99.90;;;;;;8415806;28;19925;-77
2022/02/16 12:38:26;;;;;;;;;;;12.00;99.90;;;;;;8409834;28;19933;-76
2022/02/16 12:42:32;;;;;;;;;;;12.00;99.90;;;;;;8411030;28;20039;-76
2022/02/16 12:46:35;;;;;;;;;;;12.00;99.90;;;;;;8413481;28;19924;-77
2022/02/16 12:50:37;;;;;;;;;;;12.00;99.90;;;;;;8405497;28;19933;-76
2022/02/16 12:54:39;;;;;;;;;;;12.10;99.90;;;;;;8403916;28;19978;-77
2022/02/16 12:58:42;;;;;;;;;;;12.10;99.90;;;;;;8401873;28;20379;-76
2022/02/16 13:02:45;;;;;;;;;;;12.10;99.90;;;;;;8417195;28;19925;-76
2022/02/16 13:06:50;;;;;;;;;;;12.10;99.90;;;;;;8388746;28;19931;-76
2022/02/16 13:10:51;;;;;;;;;;;12.10;99.90;;;;;;8410037;28;19931;-76
2022/02/16 13:14:53;;;;;;;;;;;12.10;99.90;;;;;;8395489;28;19931;-77
2022/02/16 13:18:59;;;;;;;;;;;12.20;99.90;;;;;;8412704;28;19931;-76
2022/02/16 13:23:01;;;;;;;;;;;12.10;99.90;;;;;;8414094;28;19931;-76
2022/02/16 13:27:04;;;;;;;;;;;12.20;99.90;;;;;;8409060;28;19928;-76
2022/02/16 13:31:17;;;;;;;;;;;12.20;99.90;;;;;;8396766;28;20024;-77
2022/02/16 13:35:22;;;;;;;;;;;12.20;99.90;;;;;;8407429;28;20368;-76
2022/02/16 13:39:24;;;;;;;;;;;12.20;99.90;;;;;;8408259;28;19924;-76
2022/02/16 13:43:41;;;;;;;;;;;12.20;99.90;;;;;;8412574;28;19978;-76
2022/02/16 13:47:49;;;;;;;;;;;12.10;99.90;;;;;;8387075;28;19978;-76
2022/02/16 13:51:51;;;;;;;;;;;12.10;99.90;;;;;;8406699;28;19928;-76
2022/02/16 13:55:55;;;;;;;;;;;12.10;99.90;;;;;;8403473;28;20264;-76
2022/02/16 14:00:02;;;;;;;;;;;12.10;99.90;;;;;;8395957;28;20360;-76
2022/02/16 14:04:05;;;;;;;;;;;12.10;99.90;;;;;;8393203;28;19925;-77
2022/02/16 14:08:07;;;;;;;;;;;12.10;99.90;;;;;;8396843;28;19928;-76
2022/02/16 14:12:09;;;;;;;;;;;12.10;99.90;;;;;;8389986;28;19947;-76
2022/02/16 14:16:10;;;;;;;;;;;12.10;99.90;;;;;;8393210;28;19924;-76
2022/02/16 14:20:12;;;;;;;;;;;12.00;99.90;;;;;;8408285;28;19928;-76
2022/02/16 14:24:14;;;;;;;;;;;12.00;99.90;;;;;;8404385;28;19924;-76
2022/02/16 14:28:16;;;;;;;;;;;12.00;99.90;;;;;;8390554;28;19931;-77
2022/02/16 14:32:18;;;;;;;;;;;12.00;99.90;;;;;;8411575;28;19924;-77
2022/02/16 14:36:19;;;;;;;;;;;12.00;99.90;;;;;;8403207;28;19924;-76
2022/02/16 14:40:21;;;;;;;;;;;12.00;99.90;;;;;;8387946;28;19931;-76
2022/02/16 14:44:23;;;;;;;;;;;12.00;99.90;;;;;;8411951;28;19928;-76
2022/02/16 14:48:25;;;;;;;;;;;11.90;99.90;;;;;;8404934;28;19924;-76
2022/02/16 14:52:27;;;;;;;;;;;11.90;99.90;;;;;;8409122;28;19932;-76
2022/02/16 14:56:29;;;;;;;;;;;11.80;99.90;;;;;;8401888;28;19935;-76
2022/02/16 15:00:30;;;;;;;;;;;11.80;99.90;;;;;;8403200;28;19924;-76
2022/02/16 15:04:33;;;;;;;;;;;11.60;99.90;;;;;;8420337;28;19928;-76
2022/02/16 15:08:35;;;;;;;;;;;11.40;99.90;;;;;;8392314;28;19924;-77
2022/02/16 15:12:40;;;;;;;;;;;11.30;99.90;;;;;;8404215;28;19928;-76
2022/02/16 15:16:42;;;;;;;;;;;11.30;99.90;;;;;;8391894;28;19924;-76
2022/02/16 15:20:44;;;;;;;;;;;11.30;99.90;;;;;;8417417;28;19925;-76
2022/02/16 15:24:46;;;;;;;;;;;11.40;99.90;;;;;;8412266;28;19924;-76
2022/02/16 15:28:51;;;;;;;;;;;11.50;99.90;;;;;;8407643;28;19978;-76
2022/02/16 15:32:52;;;;;;;;;;;11.60;99.90;;;;;;8397335;28;19948;-76
2022/02/16 15:36:54;;;;;;;;;;;11.70;99.90;;;;;;8414345;28;20270;-76
2022/02/16 15:40:56;;;;;;;;;;;11.70;99.90;;;;;;8406799;28;19924;-76
2022/02/16 15:44:58;;;;;;;;;;;11.80;99.90;;;;;;8392378;28;19928;-76
2022/02/16 15:49:01;;;;;;;;;;;11.80;99.90;;;;;;8394495;28;19931;-76
2022/02/16 15:53:03;;;;;;;;;;;11.90;99.90;;;;;;8410870;28;19958;-76
2022/02/16 15:57:05;;;;;;;;;;;11.90;99.90;;;;;;8411329;28;20298;-75
2022/02/16 16:01:06;;;;;;;;;;;12.00;99.90;;;;;;8411984;28;20024;-76
2022/02/16 16:05:08;;;;;;;;;;;12.00;99.90;;;;;;8407598;28;19932;-76
2022/02/16 16:09:10;;;;;;;;;;;12.10;99.90;;;;;;8407420;28;19950;-75
2022/02/16 16:13:12;;;;;;;;;;;12.10;99.90;;;;;;8414790;28;20561;-75
2022/02/16 16:17:14;;;;;;;;;;;12.10;99.90;;;;;;8389347;28;20295;-76
2022/02/16 16:21:17;;;;;;;;;;;12.10;99.90;;;;;;8390131;28;20303;-76
2022/02/16 16:25:19;;;;;;;;;;;12.20;99.90;;;;;;8411472;28;19925;-75
2022/02/16 16:29:21;;;;;;;;;;;12.20;99.90;;;;;;8392596;28;20027;-75
2022/02/16 16:33:23;;;;;;;;;;;12.20;99.90;;;;;;8408714;28;19928;-75
2022/02/16 16:37:25;;;;;;;;;;;12.10;99.90;;;;;;8412067;28;19936;-75
2022/02/16 16:41:26;;;;;;;;;;;12.00;99.90;;;;;;8391792;28;19932;-76
2022/02/16 16:45:28;;;;;;;;;;;11.90;99.90;;;;;;8406140;28;19925;-76
2022/02/16 16:49:30;;;;;;;;;;;11.90;99.90;;;;;;8396925;28;20291;-76
2022/02/16 16:53:32;;;;;;;;;;;11.90;99.90;;;;;;8384850;28;20413;-76
2022/02/16 16:57:34;;;;;;;;;;;11.90;99.90;;;;;;8397466;28;19957;-75
2022/02/16 17:01:35;;;;;;;;;;;11.90;99.90;;;;;;8410560;28;20382;-76
2022/02/16 17:05:37;;;;;;;;;;;12.00;99.90;;;;;;8395357;28;19927;-75
2022/02/16 17:09:39;;;;;;;;;;;12.10;99.90;;;;;;8382130;28;19924;-75
2022/02/16 17:13:40;;;;;;;;;;;12.20;99.90;;;;;;8389467;28;20276;-75
2022/02/16 17:17:45;;;;;;;;;;;12.30;99.90;;;;;;8403528;28;20295;-75
2022/02/16 17:21:47;;;;;;;;;;;12.40;99.90;;;;;;8387385;28;19935;-75
2022/02/16 17:25:49;;;;;;;;;;;12.40;99.90;;;;;;8411234;28;20021;-75
2022/02/16 17:29:50;;;;;;;;;;;12.40;99.90;;;;;;8411766;28;19931;-75
2022/02/16 17:33:52;;;;;;;;;;;12.50;99.90;;;;;;8411607;28;19924;-74
2022/02/16 17:37:55;;;;;;;;;;;12.50;99.90;;;;;;8411575;28;19928;-75
2022/02/16 17:41:57;;;;;;;;;;;12.50;99.90;;;;;;8384925;28;19925;-75
2022/02/16 17:45:59;;;;;;;;;;;12.40;99.90;;;;;;8392045;28;19932;-75
2022/02/16 17:50:00;;;;;;;;;;;12.40;99.90;;;;;;8402010;28;19974;-75
2022/02/16 17:54:02;;;;;;;;;;;12.40;99.90;;;;;;8408560;28;19924;-75
2022/02/16 17:58:04;;;;;;;;;;;12.30;99.90;;;;;;8386045;28;19943;-75
2022/02/16 18:02:06;;;;;;;;;;;12.20;99.90;;;;;;8384342;28;19928;-75
2022/02/16 18:06:07;;;;;;;;;;;12.00;99.90;;;;;;8399051;28;20330;-75
2022/02/16 18:10:09;;;;;;;;;;;12.00;99.90;;;;;;8399481;28;20297;-75
2022/02/16 18:14:11;;;;;;;;;;;11.90;99.90;;;;;;8391008;28;20279;-76
2022/02/16 18:18:16;;;;;;;;;;;11.90;99.90;;;;;;8410288;28;20290;-76
2022/02/16 18:22:20;;;;;;;;;;;11.90;99.90;;;;;;8398820;28;20209;-76
2022/02/16 18:26:25;;;;;;;;;;;11.80;99.90;;;;;;8406089;28;19933;-76
2022/02/16 18:30:27;;;;;;;;;;;11.80;99.90;;;;;;8385762;28;19925;-77
2022/02/16 18:34:29;;;;;;;;;;;11.90;99.90;;;;;;8398986;28;19977;-76
2022/02/16 18:38:32;;;;;;;;;;;11.90;99.90;;;;;;8405147;28;19924;-76
2022/02/16 18:42:34;;;;;;;;;;;11.90;99.90;;;;;;8406160;28;19932;-76
2022/02/16 18:46:36;;;;;;;;;;;12.00;99.90;;;;;;8404664;28;19928;-76
2022/02/16 18:50:38;;;;;;;;;;;12.00;99.90;;;;;;8383978;28;19950;-76
2022/02/16 18:54:40;;;;;;;;;;;12.00;99.90;;;;;;8412929;28;19928;-76
2022/02/16 18:58:42;;;;;;;;;;;12.10;99.90;;;;;;8389789;28;19924;-76
2022/02/16 19:02:43;;;;;;;;;;;12.10;99.90;;;;;;8390171;28;19928;-76
2022/02/16 19:06:52;;;;;;;;;;;12.10;99.90;;;;;;8396925;28;19924;-76
2022/02/16 19:10:54;;;;;;;;;;;12.20;99.90;;;;;;8405419;28;19939;-76
2022/02/16 19:14:55;;;;;;;;;;;12.20;99.90;;;;;;8402284;28;19932;-76
2022/02/16 19:18:57;;;;;;;;;;;12.30;99.90;;;;;;8385384;28;20360;-76
2022/02/16 19:22:58;;;;;;;;;;;12.30;99.90;;;;;;8405111;28;19985;-76
2022/02/16 19:27:00;;;;;;;;;;;12.30;99.90;;;;;;8406585;28;19930;-76
2022/02/16 19:31:03;;;;;;;;;;;12.30;99.90;;;;;;8410731;28;20321;-76
2022/02/16 19:35:05;;;;;;;;;;;12.30;99.90;;;;;;8407379;28;19928;-76
2022/02/16 19:39:07;;;;;;;;;;;12.30;99.90;;;;;;8400608;28;20303;-76
2022/02/16 19:43:19;;;;;;;;;;;12.30;99.90;;;;;;8405844;28;19924;-76
2022/02/16 19:47:25;;;;;;;;;;;12.20;99.90;;;;;;8394565;28;19935;-79
2022/02/16 19:51:26;;;;;;;;;;;12.10;99.90;;;;;;8404309;28;19936;-81
2022/02/16 19:55:32;;;;;;;;;;;12.00;99.90;;;;;;8381651;28;19925;-82
2022/02/16 19:59:33;;;;;;;;;;;11.90;99.90;;;;;;8387072;28;20283;-81
2022/02/16 20:03:35;;;;;;;;;;;11.90;99.90;;;;;;8399781;28;19924;-81
2022/02/16 20:07:37;;;;;;;;;;;11.80;99.90;;;;;;8404871;28;19928;-82
2022/02/16 20:11:39;;;;;;;;;;;11.80;99.90;;;;;;8386687;28;19931;-83
2022/02/16 20:15:40;;;;;;;;;;;11.80;99.90;;;;;;8399881;28;19974;-83
2022/02/16 20:19:43;;;;;;;;;;;11.70;99.90;;;;;;8399993;28;19924;-84
2022/02/16 20:23:44;;;;;;;;;;;11.70;99.90;;;;;;8411195;28;19932;-83
2022/02/16 20:27:47;;;;;;;;;;;11.70;99.90;;;;;;8390327;28;19936;-83
2022/02/16 20:31:53;;;;;;;;;;;11.70;99.90;;;;;;8395178;28;19925;-83
2022/02/16 20:35:54;;;;;;;;;;;11.70;99.90;;;;;;8406763;28;20319;-84
2022/02/16 20:39:57;;;;;;;;;;;11.70;99.90;;;;;;8406884;28;20307;-84
2022/02/16 20:43:59;;;;;;;;;;;11.70;99.90;;;;;;8412833;28;19928;-84
2022/02/16 20:48:00;;;;;;;;;;;11.70;99.90;;;;;;8408166;28;19940;-85
2022/02/16 20:52:02;;;;;;;;;;;11.70;99.90;;;;;;8394091;28;19932;-84
2022/02/16 20:56:04;;;;;;;;;;;11.70;99.90;;;;;;8412745;28;19947;-86
2022/02/16 21:00:07;;;;;;;;;;;11.70;99.90;;;;;;8392315;28;19924;-85
2022/02/16 21:04:09;;;;;;;;;;;11.70;99.90;;;;;;8389586;28;19928;-85
2022/02/16 21:08:12;;;;;;;;;;;11.80;99.90;;;;;;8394018;28;19932;-84
2022/02/16 21:12:13;;;;;;;;;;;11.80;99.90;;;;;;8413097;28;19935;-83
2022/02/16 21:16:18;;;;;;;;;;;11.80;99.90;;;;;;8411830;28;19928;-84
2022/02/16 21:20:19;;;;;;;;;;;11.80;99.90;;;;;;8389695;28;19924;-83
2022/02/16 21:24:21;;;;;;;;;;;11.80;99.90;;;;;;8412129;28;19932;-84
2022/02/16 21:28:23;;;;;;;;;;;11.80;99.90;;;;;;8405730;28;19932;-86
2022/02/16 21:32:24;;;;;;;;;;;11.80;99.90;;;;;;8394869;28;19924;-85
2022/02/16 21:36:26;;;;;;;;;;;11.80;99.90;;;;;;8413240;28;19925;-85
2022/02/16 21:40:28;;;;;;;;;;;11.70;99.90;;;;;;8396559;28;19993;-84
2022/02/16 21:44:42;;;;;;;;;;;11.70;99.90;;;;;;8399163;28;19932;-83
2022/02/16 21:48:43;;;;;;;;;;;11.70;99.90;;;;;;8402196;28;20671;-82
2022/02/16 21:52:49;;;;;;;;;;;11.70;99.90;;;;;;8391176;28;20030;-81
2022/02/16 21:56:51;;;;;;;;;;;11.70;99.90;;;;;;8388045;28;21245;-82
2022/02/16 22:00:53;;;;;;;;;;;11.60;99.90;;;;;;8416349;28;19931;-85
2022/02/16 22:04:54;;;;;;;;;;;11.60;99.90;;;;;;8387381;28;20399;-84
2022/02/16 22:08:56;;;;;;;;;;;11.50;99.90;;;;;;8392302;28;19924;-83
2022/02/16 22:12:58;;;;;;;;;;;11.40;99.90;;;;;;8402721;28;19924;-83
2022/02/16 22:16:59;;;;;;;;;;;11.30;99.90;;;;;;8406739;28;19939;-82
2022/02/16 22:21:02;;;;;;;;;;;11.30;99.90;;;;;;8388404;28;20263;-81
2022/02/16 22:25:04;;;;;;;;;;;11.30;99.90;;;;;;8383223;28;19924;-81
2022/02/16 22:29:07;;;;;;;;;;;11.30;99.90;;;;;;8380525;28;20453;-80
2022/02/16 22:33:09;;;;;;;;;;;11.30;99.90;;;;;;8385214;28;19939;-80
2022/02/16 22:37:11;;;;;;;;;;;11.30;99.90;;;;;;8386387;28;20366;-79
2022/02/16 22:41:13;;;;;;;;;;;11.20;99.90;;;;;;8407422;28;20390;-79
2022/02/16 22:45:14;;;;;;;;;;;11.20;99.90;;;;;;8382922;28;20201;-79
2022/02/16 22:49:16;;;;;;;;;;;11.20;99.90;;;;;;8382443;28;20242;-79
2022/02/16 22:53:18;;;;;;;;;;;11.10;99.90;;;;;;8387833;28;19931;-79
2022/02/16 22:57:20;;;;;;;;;;;11.20;99.90;;;;;;8385568;28;19924;-79
2022/02/16 23:01:23;;;;;;;;;;;11.30;99.90;;;;;;8402067;28;20321;-79
2022/02/16 23:14:06;;;;;;;;;;;11.60;99.90;;;;;;8396317;28;19929;-79
2022/02/16 23:18:08;;;;;;;;;;;11.60;99.90;;;;;;8388542;28;19925;-79
2022/02/16 23:22:10;;;;;;;;;;;11.60;99.90;;;;;;8394984;28;19924;-79
2022/02/16 23:26:12;;;;;;;;;;;11.60;99.90;;;;;;8402077;28;20265;-79
2022/02/16 23:30:14;;;;;;;;;;;11.60;99.90;;;;;;8383578;28;20035;-78
2022/02/16 23:34:15;;;;;;;;;;;11.70;99.90;;;;;;8406851;28;19932;-78
2022/02/16 23:38:17;;;;;;;;;;;11.70;99.90;;;;;;8407053;28;20446;-79
2022/02/16 23:42:19;;;;;;;;;;;11.70;99.90;;;;;;8384916;28;19932;-78
2022/02/16 23:46:20;;;;;;;;;;;11.80;99.90;;;;;;8407925;28;19925;-79
2022/02/16 23:50:23;;;;;;;;;;;11.80;99.90;;;;;;8408886;28;19924;-78